Time;durP1;ratioP1;P1;durP2;ratioP2;P2;SDS_P1;SDS_P2;PMS_P1;PMS_P2;Temp;Humidity;BMP_temperature;BMP_pressure;BME280_temperature;BME280_humidity;BME280_pressure;Samples;Min_cycle;Max_cycle;Signal;HPM_P1;HPM_P2
2024/01/22 00:02:14;;;;;;;;;;;;;;;16.84;60.67;103162.44;7392630;19;1915;-65
2024/01/22 00:04:42;;;;;;;;;;;;;;;16.80;60.85;103116.22;7391297;19;1798;-65
2024/01/22 00:07:11;;;;;;;;;;;;;;;16.82;60.81;103122.41;7392536;19;1813;-65
2024/01/22 00:09:39;;;;;;;;;;;;;;;16.82;60.87;103126.88;7390188;19;1400;-64
2024/01/22 00:12:08;;;;;;;;;;;;;;;16.81;60.90;103119.75;7387799;19;1545;-65
2024/01/22 00:14:37;;;;;;;;;;;;;;;16.79;60.95;103126.97;7376227;19;1869;-65
2024/01/22 00:17:08;;;;;;;;;;;;;;;16.81;60.78;103135.78;7392834;19;1813;-64
2024/01/22 00:19:36;;;;;;;;;;;;;;;16.75;61.04;103123.56;7391320;19;1471;-64
2024/01/22 00:22:05;;;;;;;;;;;;;;;16.79;61.09;103129.63;7389361;19;1526;-65
2024/01/22 00:24:33;;;;;;;;;;;;;;;16.86;61.04;103123.16;7391185;19;1606;-66
2024/01/22 00:27:02;;;;;;;;;;;;;;;16.84;60.98;103125.03;7392031;19;1501;-65
2024/01/22 00:29:30;;;;;;;;;;;;;;;16.83;60.99;103128.59;7392515;19;1014;-66
2024/01/22 00:31:58;;;;;;;;;;;;;;;17.16;59.79;103136.16;7391174;19;1522;-64
2024/01/22 00:34:29;;;;;;;;;;;;;;;17.63;58.22;103130.53;7390350;19;1907;-64
2024/01/22 00:36:57;;;;;;;;;;;;;;;17.84;57.89;103118.88;7391020;19;1670;-67
2024/01/22 00:39:26;;;;;;;;;;;;;;;17.85;57.70;103107.25;7392707;19;1008;-64
2024/01/22 00:41:56;;;;;;;;;;;;;;;17.82;57.26;103110.00;7391538;19;1311;-64
2024/01/22 00:44:24;;;;;;;;;;;;;;;17.74;57.13;103122.03;7390700;19;1233;-64
2024/01/22 00:46:53;;;;;;;;;;;;;;;17.66;57.42;103115.19;7391072;19;1600;-65
2024/01/22 00:49:21;;;;;;;;;;;;;;;17.68;57.32;103112.47;7391023;19;1450;-65
2024/01/22 00:51:52;;;;;;;;;;;;;;;17.73;57.20;103114.94;7389658;19;1632;-66
2024/01/22 00:54:20;;;;;;;;;;;;;;;17.73;57.17;103113.13;7389330;19;1853;-65
2024/01/22 00:56:49;;;;;;;;;;;;;;;17.68;57.35;103118.66;7281937;19;2217;-64
2024/01/22 00:59:17;;;;;;;;;;;;;;;17.62;57.43;103110.06;7389169;19;1484;-66
2024/01/22 01:01:45;;;;;;;;;;;;;;;17.70;57.33;103119.47;7388646;19;1260;-66
2024/01/22 01:04:13;;;;;;;;;;;;;;;17.78;57.24;103111.09;7388532;19;1352;-65
2024/01/22 01:06:42;;;;;;;;;;;;;;;17.77;56.97;103112.06;7389449;19;1401;-64
2024/01/22 01:09:13;;;;;;;;;;;;;;;17.77;56.92;103101.34;7389377;19;1429;-65
2024/01/22 01:11:41;;;;;;;;;;;;;;;17.70;57.09;103100.72;7387914;19;1009;-64
2024/01/22 01:14:10;;;;;;;;;;;;;;;17.72;56.93;103105.16;7374587;19;1858;-65
2024/01/22 01:16:38;;;;;;;;;;;;;;;17.70;57.10;103099.88;7389356;19;1860;-64
2024/01/22 01:19:06;;;;;;;;;;;;;;;17.76;56.84;103110.28;7390043;19;1732;-65
2024/01/22 01:21:34;;;;;;;;;;;;;;;17.70;56.86;103094.53;7388427;19;1710;-65
2024/01/22 01:24:03;;;;;;;;;;;;;;;17.75;56.62;103086.31;7389250;19;1463;-65
2024/01/22 01:26:34;;;;;;;;;;;;;;;17.73;57.02;103102.44;7389485;19;1553;-65
2024/01/22 01:29:02;;;;;;;;;;;;;;;17.76;56.91;103102.25;7388246;19;1682;-65
2024/01/22 01:31:30;;;;;;;;;;;;;;;17.72;56.92;103097.13;7388396;19;1590;-64
2024/01/22 01:33:59;;;;;;;;;;;;;;;17.78;56.71;103121.78;7387576;19;1861;-64
2024/01/22 01:36:27;;;;;;;;;;;;;;;17.78;56.82;103100.38;7388793;19;1415;-63
2024/01/22 01:38:55;;;;;;;;;;;;;;;17.73;56.96;103105.09;7389354;19;1567;-66
2024/01/22 01:41:24;;;;;;;;;;;;;;;17.73;56.95;103093.53;7388623;19;1100;-66
2024/01/22 01:43:55;;;;;;;;;;;;;;;17.71;56.92;103098.94;7390258;19;849;-66
2024/01/22 01:46:23;;;;;;;;;;;;;;;17.73;56.97;103097.06;7387368;19;1786;-65
2024/01/22 01:48:52;;;;;;;;;;;;;;;17.69;56.96;103087.44;7389582;19;1869;-65
2024/01/22 01:51:21;;;;;;;;;;;;;;;17.71;57.08;103085.56;7389098;19;1512;-65
2024/01/22 01:53:49;;;;;;;;;;;;;;;17.69;57.13;103087.44;7388693;19;1908;-65
2024/01/22 01:56:18;;;;;;;;;;;;;;;17.77;56.89;103095.13;7386249;19;1571;-63
2024/01/22 01:58:46;;;;;;;;;;;;;;;17.72;56.93;103092.66;7384980;19;1513;-66
2024/01/22 02:01:18;;;;;;;;;;;;;;;17.67;57.16;103083.97;7387577;19;1586;-64
2024/01/22 02:03:47;;;;;;;;;;;;;;;17.66;57.20;103092.94;7386987;19;1793;-65
2024/01/22 02:06:13;;;;;;;;;;;;;;;17.66;57.20;103083.09;7389289;19;1558;-65
2024/01/22 02:08:41;;;;;;;;;;;;;;;17.67;57.31;103100.03;7388899;19;1761;-63
2024/01/22 02:11:09;;;;;;;;;;;;;;;17.67;57.50;103092.00;7386963;19;1385;-65
2024/01/22 02:13:38;;;;;;;;;;;;;;;17.39;57.79;103077.19;7386306;19;1848;-65
2024/01/22 02:16:06;;;;;;;;;;;;;;;17.18;58.68;103092.38;7372510;19;1837;-65
2024/01/22 02:18:37;;;;;;;;;;;;;;;17.03;59.16;103098.38;7386546;19;1792;-64
2024/01/22 02:21:06;;;;;;;;;;;;;;;16.88;58.72;103098.09;7386729;19;1067;-65
2024/01/22 02:23:36;;;;;;;;;;;;;;;16.83;59.60;103096.53;7388250;19;1232;-65
2024/01/22 02:26:05;;;;;;;;;;;;;;;16.83;60.22;103096.53;7387378;19;1486;-65
2024/01/22 02:28:34;;;;;;;;;;;;;;;16.84;60.16;103095.63;7387436;19;1431;-65
2024/01/22 02:31:02;;;;;;;;;;;;;;;16.88;60.04;103095.41;7387342;19;1355;-65
2024/01/22 02:33:31;;;;;;;;;;;;;;;16.85;60.01;103100.03;7389516;19;1642;-65
2024/01/22 02:36:00;;;;;;;;;;;;;;;16.84;60.39;103111.66;7393462;19;1847;-63
2024/01/22 02:38:28;;;;;;;;;;;;;;;16.81;60.16;103106.41;7395587;19;1443;-65
2024/01/22 02:40:59;;;;;;;;;;;;;;;16.72;60.20;103104.13;7395266;19;1465;-65
2024/01/22 02:43:28;;;;;;;;;;;;;;;16.92;59.38;103112.19;7394149;19;1557;-66
2024/01/22 02:45:56;;;;;;;;;;;;;;;17.30;58.33;103107.00;7394502;19;1271;-66
2024/01/22 02:48:24;;;;;;;;;;;;;;;17.65;57.37;103092.06;7394465;19;1785;-65
2024/01/22 02:50:53;;;;;;;;;;;;;;;17.50;58.27;103092.75;7394377;19;1172;-65
2024/01/22 02:53:21;;;;;;;;;;;;;;;17.24;58.91;103117.97;7393128;19;1812;-65
2024/01/22 02:55:49;;;;;;;;;;;;;;;17.00;59.35;103114.56;7393254;19;1842;-65
2024/01/22 02:58:20;;;;;;;;;;;;;;;16.80;59.87;103112.69;7391763;19;2555;-65
2024/01/22 03:00:49;;;;;;;;;;;;;;;17.22;58.59;103111.81;7394023;19;1180;-65
2024/01/22 03:03:18;;;;;;;;;;;;;;;17.75;57.22;103095.19;7392854;19;1454;-64
2024/01/22 03:05:46;;;;;;;;;;;;;;;18.02;56.47;103110.94;7394417;19;1841;-65
2024/01/22 03:08:14;;;;;;;;;;;;;;;17.76;56.85;103099.59;7394539;19;1587;-66
2024/01/22 03:10:43;;;;;;;;;;;;;;;17.45;57.66;103116.19;7392769;19;1453;-65
2024/01/22 03:13:11;;;;;;;;;;;;;;;17.13;58.82;103109.53;7391841;19;1609;-65
2024/01/22 03:15:42;;;;;;;;;;;;;;;17.00;59.12;103117.22;7376448;19;1877;-65
2024/01/22 03:18:12;;;;;;;;;;;;;;;16.85;59.55;103116.06;7393926;19;1483;-65
2024/01/22 03:20:40;;;;;;;;;;;;;;;17.04;58.70;103111.69;7394028;19;1161;-65
2024/01/22 03:23:08;;;;;;;;;;;;;;;17.48;57.22;103106.19;7393254;19;1013;-65
2024/01/22 03:25:37;;;;;;;;;;;;;;;17.91;56.23;103110.59;7390512;19;1427;-65
2024/01/22 03:28:05;;;;;;;;;;;;;;;17.88;56.20;103104.41;7392894;19;1276;-65
2024/01/22 03:30:34;;;;;;;;;;;;;;;17.46;57.08;103118.75;7391484;19;1687;-65
2024/01/22 03:33:05;;;;;;;;;;;;;;;17.17;58.34;103105.78;7393697;19;1482;-66
2024/01/22 03:35:33;;;;;;;;;;;;;;;16.94;59.01;103115.69;7392180;19;1841;-65
2024/01/22 03:38:01;;;;;;;;;;;;;;;17.01;58.95;103117.19;7394842;19;963;-64
2024/01/22 03:40:30;;;;;;;;;;;;;;;17.53;57.26;103114.03;7393016;19;1464;-65
2024/01/22 03:42:58;;;;;;;;;;;;;;;17.76;56.36;103094.25;7391537;19;1883;-65
2024/01/22 03:45:27;;;;;;;;;;;;;;;17.82;56.41;103103.78;7391163;19;1691;-65
2024/01/22 03:47:55;;;;;;;;;;;;;;;17.52;57.02;103116.75;7391976;19;1434;-65
2024/01/22 03:50:26;;;;;;;;;;;;;;;17.17;58.03;103106.69;7391785;19;1209;-65
2024/01/22 03:52:54;;;;;;;;;;;;;;;16.95;59.05;103119.22;7393389;19;1690;-66
2024/01/22 03:55:22;;;;;;;;;;;;;;;16.78;59.34;103123.44;7391243;19;1847;-65
2024/01/22 03:57:51;;;;;;;;;;;;;;;17.08;58.18;103115.97;7391954;19;1436;-65
2024/01/22 04:00:19;;;;;;;;;;;;;;;17.53;56.92;103119.38;7389998;19;2247;-64
2024/01/22 04:02:48;;;;;;;;;;;;;;;17.95;55.76;103110.38;7392126;19;1578;-65
2024/01/22 04:05:16;;;;;;;;;;;;;;;18.28;55.31;103110.59;7391465;19;1184;-64
2024/01/22 04:07:47;;;;;;;;;;;;;;;18.46;54.77;103124.00;7392563;19;1904;-64
2024/01/22 04:10:16;;;;;;;;;;;;;;;18.29;55.08;103117.66;7390598;19;1399;-65
2024/01/22 04:12:44;;;;;;;;;;;;;;;18.50;54.78;103122.91;7388552;19;1735;-66
2024/01/22 04:15:13;;;;;;;;;;;;;;;18.59;54.31;103110.91;7377119;19;1876;-66
2024/01/22 04:17:41;;;;;;;;;;;;;;;18.50;54.36;103117.56;7388886;19;1760;-66
2024/01/22 04:20:10;;;;;;;;;;;;;;;18.29;54.88;103120.34;7393453;19;1044;-65
2024/01/22 04:22:38;;;;;;;;;;;;;;;18.26;54.96;103115.16;7391899;19;1438;-66
2024/01/22 04:25:10;;;;;;;;;;;;;;;18.17;55.05;103112.91;7391078;19;1833;-65
2024/01/22 04:27:38;;;;;;;;;;;;;;;18.20;54.74;103139.50;7392031;19;1853;-64
2024/01/22 04:30:07;;;;;;;;;;;;;;;18.31;54.74;103139.03;7390315;19;1864;-65
2024/01/22 04:32:36;;;;;;;;;;;;;;;18.45;54.46;103139.22;7388682;19;1181;-65
2024/01/22 04:35:04;;;;;;;;;;;;;;;18.61;53.94;103125.94;7388823;19;1845;-65
2024/01/22 04:37:33;;;;;;;;;;;;;;;18.73;53.77;103134.34;7391308;19;1506;-66
2024/01/22 04:40:13;;;;;;;;;;;;;;;18.88;53.44;103131.78;7388579;19;1196;-66
2024/01/22 04:42:44;;;;;;;;;;;;;;;18.95;53.24;103121.63;7388059;19;2406;-64
2024/01/22 04:45:12;;;;;;;;;;;;;;;18.80;53.59;103135.78;7388283;19;1520;-65
2024/01/22 04:47:41;;;;;;;;;;;;;;;18.61;54.43;103139.34;7391037;19;1491;-67
2024/01/22 04:50:09;;;;;;;;;;;;;;;18.40;54.67;103116.28;7388552;19;1521;-61
2024/01/22 04:52:38;;;;;;;;;;;;;;;18.17;54.37;103137.00;7390372;19;1454;-64
2024/01/22 04:55:06;;;;;;;;;;;;;;;18.09;54.42;103134.69;7391051;19;1859;-72
2024/01/22 04:57:37;;;;;;;;;;;;;;;18.04;53.70;103130.47;7389377;19;1474;-73
2024/01/22 05:00:07;;;;;;;;;;;;;;;18.16;52.84;103135.25;7391269;19;1383;-72
2024/01/22 05:02:37;;;;;;;;;;;;;;;18.21;52.81;103141.25;7391026;19;1887;-73
2024/01/22 05:05:05;;;;;;;;;;;;;;;18.16;52.33;103139.75;7391337;19;1876;-74
2024/01/22 05:07:34;;;;;;;;;;;;;;;17.64;53.67;103142.97;7390694;19;1541;-72
2024/01/22 05:10:04;;;;;;;;;;;;;;;17.21;54.43;103160.88;7388209;19;1491;-72
2024/01/22 05:12:33;;;;;;;;;;;;;;;16.95;56.32;103149.50;7390964;19;1602;-73
2024/01/22 05:15:04;;;;;;;;;;;;;;;16.86;56.44;103139.19;7374846;19;1855;-73
2024/01/22 05:17:32;;;;;;;;;;;;;;;16.86;57.32;103153.41;7390437;19;1409;-73
2024/01/22 05:20:00;;;;;;;;;;;;;;;17.20;56.35;103149.31;7388612;19;1197;-71
2024/01/22 05:22:29;;;;;;;;;;;;;;;17.57;55.09;103152.22;7389066;19;1808;-73
2024/01/22 05:24:57;;;;;;;;;;;;;;;17.98;54.17;103149.50;7388590;19;1502;-72
2024/01/22 05:27:26;;;;;;;;;;;;;;;18.44;52.87;103148.22;7388321;19;1507;-71
2024/01/22 05:29:54;;;;;;;;;;;;;;;18.72;52.38;103148.66;7389426;19;1845;-73
2024/01/22 05:32:25;;;;;;;;;;;;;;;18.86;51.79;103151.56;7389416;19;1448;-69
2024/01/22 05:34:54;;;;;;;;;;;;;;;18.98;51.71;103145.59;7388644;19;1835;-72
2024/01/22 05:37:22;;;;;;;;;;;;;;;18.97;51.63;103151.91;7390004;19;1527;-71
2024/01/22 05:39:50;;;;;;;;;;;;;;;19.08;51.84;103164.78;7387359;19;1769;-73
2024/01/22 05:42:19;;;;;;;;;;;;;;;19.15;51.76;103168.00;7390220;19;1539;-72
2024/01/22 05:44:47;;;;;;;;;;;;;;;18.85;52.60;103157.88;7389958;19;1694;-71
2024/01/22 05:47:15;;;;;;;;;;;;;;;18.54;53.18;103153.13;7387894;19;1539;-73
2024/01/22 05:49:46;;;;;;;;;;;;;;;18.69;53.54;103177.34;7388666;19;1556;-71
2024/01/22 05:52:15;;;;;;;;;;;;;;;18.90;53.11;103169.25;7389422;19;1293;-71
2024/01/22 05:54:43;;;;;;;;;;;;;;;19.05;53.03;103155.06;7390572;19;959;-70
2024/01/22 05:57:12;;;;;;;;;;;;;;;18.99;52.80;103155.38;7387915;19;1869;-67
2024/01/22 05:59:41;;;;;;;;;;;;;;;18.67;53.06;103173.03;7387778;19;1523;-63
2024/01/22 06:02:09;;;;;;;;;;;;;;;18.28;52.26;103153.44;7386181;19;1446;-66
2024/01/22 06:04:37;;;;;;;;;;;;;;;18.23;52.37;103158.13;7385269;19;1383;-66
2024/01/22 06:07:08;;;;;;;;;;;;;;;18.24;52.38;103165.25;7384211;19;1333;-67
2024/01/22 06:09:37;;;;;;;;;;;;;;;18.31;52.02;103167.63;7383753;19;1768;-66
2024/01/22 06:12:06;;;;;;;;;;;;;;;18.32;51.93;103166.66;7381988;19;1027;-64
2024/01/22 06:14:34;;;;;;;;;;;;;;;18.38;52.04;103182.44;7385173;19;1734;-65
2024/01/22 06:17:02;;;;;;;;;;;;;;;18.35;51.85;103177.25;7369352;19;1877;-67
2024/01/22 06:19:31;;;;;;;;;;;;;;;18.38;51.78;103171.72;7384942;19;1151;-66
2024/01/22 06:21:59;;;;;;;;;;;;;;;18.45;51.64;103178.56;7383681;19;1718;-64
2024/01/22 06:24:34;;;;;;;;;;;;;;;18.43;51.63;103169.72;7385131;19;1142;-66
2024/01/22 06:27:03;;;;;;;;;;;;;;;18.50;51.45;103179.19;7385543;19;1691;-66
2024/01/22 06:29:32;;;;;;;;;;;;;;;18.06;52.14;103182.13;7383039;19;2069;-66
2024/01/22 06:32:00;;;;;;;;;;;;;;;17.64;53.25;103191.13;7385611;19;1788;-65
2024/01/22 06:34:28;;;;;;;;;;;;;;;17.39;53.97;103175.25;7386961;19;1151;-67
2024/01/22 06:36:57;;;;;;;;;;;;;;;17.08;53.57;103185.47;7385400;19;1862;-66
2024/01/22 06:39:26;;;;;;;;;;;;;;;16.88;54.62;103183.63;7388698;19;1059;-66
2024/01/22 06:41:57;;;;;;;;;;;;;;;16.81;55.20;103189.22;7385670;19;1665;-66
2024/01/22 06:44:25;;;;;;;;;;;;;;;16.69;55.39;103180.81;7385501;19;1619;-67
2024/01/22 06:46:53;;;;;;;;;;;;;;;17.06;54.55;103178.44;7387331;19;1372;-66
2024/01/22 06:49:22;;;;;;;;;;;;;;;17.55;53.24;103170.13;7387886;19;1023;-65
2024/01/22 06:51:50;;;;;;;;;;;;;;;18.01;52.22;103162.75;7385582;19;1885;-67
2024/01/22 06:54:19;;;;;;;;;;;;;;;18.35;51.30;103171.91;7387570;19;1820;-66
2024/01/22 06:56:47;;;;;;;;;;;;;;;18.60;50.89;103171.56;7385994;19;1863;-66
2024/01/22 06:59:18;;;;;;;;;;;;;;;18.99;49.83;103168.78;7387619;19;1710;-66
2024/01/22 07:01:47;;;;;;;;;;;;;;;19.10;49.70;103164.69;7387593;19;1785;-66
2024/01/22 07:04:15;;;;;;;;;;;;;;;18.67;50.69;103152.44;7386691;19;1676;-66
2024/01/22 07:06:43;;;;;;;;;;;;;;;18.42;51.35;103162.59;7385446;19;1479;-66
2024/01/22 07:09:12;;;;;;;;;;;;;;;18.32;51.67;103161.31;7385981;19;1528;-66
2024/01/22 07:11:42;;;;;;;;;;;;;;;18.28;51.60;103165.94;7386087;19;1115;-65
2024/01/22 07:14:10;;;;;;;;;;;;;;;18.25;51.75;103160.75;7385815;19;1444;-66
2024/01/22 07:16:41;;;;;;;;;;;;;;;18.29;51.71;103170.38;7371408;19;1891;-66
2024/01/22 07:19:10;;;;;;;;;;;;;;;18.36;51.57;103157.53;7386543;19;1757;-66
2024/01/22 07:21:38;;;;;;;;;;;;;;;18.33;51.65;103169.28;7393891;19;1568;-66
2024/01/22 07:24:07;;;;;;;;;;;;;;;18.29;51.58;103151.63;7390613;19;1403;-66
2024/01/22 07:26:36;;;;;;;;;;;;;;;18.34;51.51;103159.44;7392548;19;1560;-67
2024/01/22 07:29:05;;;;;;;;;;;;;;;18.35;51.28;103153.16;7392750;19;1712;-66
2024/01/22 07:31:33;;;;;;;;;;;;;;;18.32;51.59;103151.47;7390487;19;1940;-66
2024/01/22 07:34:04;;;;;;;;;;;;;;;18.34;51.58;103172.81;7392606;19;1380;-66
2024/01/22 07:36:32;;;;;;;;;;;;;;;18.37;51.43;103180.72;7391643;19;2837;-65
2024/01/22 07:39:01;;;;;;;;;;;;;;;18.37;51.45;103164.66;7387537;19;1471;-64
2024/01/22 07:41:30;;;;;;;;;;;;;;;18.49;51.04;103175.63;7392898;19;1181;-67
2024/01/22 07:43:58;;;;;;;;;;;;;;;18.51;51.09;103182.75;7370905;19;1320;-68
2024/01/22 07:46:26;;;;;;;;;;;;;;;18.75;50.46;103160.13;7380606;19;1797;-68
2024/01/22 07:48:55;;;;;;;;;;;;;;;18.82;50.65;103166.06;7390943;19;1106;-67
2024/01/22 07:51:27;;;;;;;;;;;;;;;18.86;50.50;103181.94;7390116;19;1405;-67
2024/01/22 07:53:56;;;;;;;;;;;;;;;18.80;50.54;103176.88;7390333;19;1539;-67
2024/01/22 07:56:25;;;;;;;;;;;;;;;18.75;50.57;103181.56;7389863;19;1850;-68
2024/01/22 07:58:53;;;;;;;;;;;;;;;18.22;51.54;103172.47;7391046;19;1378;-68
2024/01/22 08:01:21;;;;;;;;;;;;;;;17.72;52.50;103188.13;7390516;19;1550;-68
2024/01/22 08:03:51;;;;;;;;;;;;;;;17.53;53.63;103198.75;7390379;19;1285;-71
2024/01/22 08:06:20;;;;;;;;;;;;;;;17.20;53.28;103189.44;7387998;19;1490;-67
2024/01/22 08:08:51;;;;;;;;;;;;;;;17.12;54.29;103193.38;7388008;19;1483;-66
2024/01/22 08:11:19;;;;;;;;;;;;;;;17.04;55.16;103188.34;7386941;19;1487;-66
2024/01/22 08:13:48;;;;;;;;;;;;;;;17.00;55.12;103195.59;7388308;19;1904;-66
2024/01/22 08:16:16;;;;;;;;;;;;;;;17.08;54.79;103185.47;7372814;19;1830;-66
2024/01/22 08:18:44;;;;;;;;;;;;;;;17.58;53.92;103188.72;7390005;19;1504;-65
2024/01/22 08:21:13;;;;;;;;;;;;;;;18.20;52.15;103170.78;7391445;19;1693;-61
2024/01/22 08:23:42;;;;;;;;;;;;;;;18.48;50.90;103190.00;7390446;19;1512;-61
2024/01/22 08:26:13;;;;;;;;;;;;;;;18.88;50.42;103187.22;7388195;19;1387;-65
2024/01/22 08:28:41;;;;;;;;;;;;;;;19.04;49.87;103192.69;7389190;19;1168;-66
2024/01/22 08:31:10;;;;;;;;;;;;;;;19.08;49.94;103195.16;7391249;19;1590;-66
2024/01/22 08:33:38;;;;;;;;;;;;;;;18.92;50.37;103199.53;7387457;19;1492;-66
2024/01/22 08:36:07;;;;;;;;;;;;;;;18.68;51.32;103196.19;7387262;19;1853;-66
2024/01/22 08:38:35;;;;;;;;;;;;;;;18.61;51.50;103209.03;7389138;19;1233;-66
2024/01/22 08:41:04;;;;;;;;;;;;;;;18.57;51.62;103199.41;7390538;19;1216;-66
2024/01/22 08:43:34;;;;;;;;;;;;;;;18.71;51.38;103187.16;7389567;19;1757;-66
2024/01/22 08:46:03;;;;;;;;;;;;;;;18.88;51.03;103232.81;7388341;19;1188;-66
2024/01/22 08:48:32;;;;;;;;;;;;;;;18.94;50.89;103173.53;7387578;19;1440;-66
2024/01/22 08:51:00;;;;;;;;;;;;;;;19.00;50.77;103159.81;7387489;19;1519;-66
2024/01/22 08:53:29;;;;;;;;;;;;;;;19.04;50.82;103182.84;7387467;19;1451;-67
2024/01/22 08:55:57;;;;;;;;;;;;;;;19.17;50.45;103187.56;7387472;19;1858;-66
2024/01/22 08:58:26;;;;;;;;;;;;;;;19.23;50.26;103181.91;7387502;19;1549;-67
2024/01/22 09:00:57;;;;;;;;;;;;;;;19.32;49.95;103169.81;7387743;19;1634;-66
2024/01/22 09:03:26;;;;;;;;;;;;;;;19.05;50.52;103168.47;7388086;19;1428;-67
2024/01/22 09:05:54;;;;;;;;;;;;;;;18.94;50.63;103162.78;7385369;19;1395;-66
2024/01/22 09:08:22;;;;;;;;;;;;;;;18.82;50.57;103150.88;7389098;19;1419;-66
2024/01/22 09:10:51;;;;;;;;;;;;;;;18.72;50.92;103154.03;7387176;19;1422;-66
2024/01/22 09:13:19;;;;;;;;;;;;;;;18.72;50.94;103171.00;7386671;19;1575;-67
2024/01/22 09:15:48;;;;;;;;;;;;;;;18.71;50.80;103147.81;7365227;19;1435;-67
2024/01/22 09:18:19;;;;;;;;;;;;;;;18.66;51.19;103158.75;7386863;19;1861;-66
2024/01/22 09:20:47;;;;;;;;;;;;;;;18.65;50.97;103138.25;7388793;19;1155;-66
2024/01/22 09:23:16;;;;;;;;;;;;;;;18.71;50.79;103146.94;7387169;19;1348;-66
2024/01/22 09:25:44;;;;;;;;;;;;;;;18.62;50.86;103149.13;7386139;19;1496;-66
2024/01/22 09:28:14;;;;;;;;;;;;;;;18.63;51.15;103150.84;7387180;19;1229;-66
2024/01/22 09:30:42;;;;;;;;;;;;;;;18.55;51.22;103145.00;7390435;19;1042;-65
2024/01/22 09:33:11;;;;;;;;;;;;;;;18.46;51.42;103157.06;7386945;19;1722;-66
2024/01/22 09:35:43;;;;;;;;;;;;;;;18.48;51.43;103127.47;7385217;19;1535;-65
2024/01/22 09:38:11;;;;;;;;;;;;;;;18.49;51.46;103140.81;7383608;19;1875;-66
2024/01/22 09:40:40;;;;;;;;;;;;;;;18.48;51.39;103151.59;7388986;19;1236;-68
2024/01/22 09:43:09;;;;;;;;;;;;;;;18.46;51.27;103145.44;7385916;19;1595;-66
2024/01/22 09:45:37;;;;;;;;;;;;;;;18.41;51.80;103134.97;7385668;19;1406;-66
2024/01/22 09:48:06;;;;;;;;;;;;;;;18.49;51.38;103153.34;7386207;19;1389;-66
2024/01/22 09:50:35;;;;;;;;;;;;;;;18.47;51.66;103134.66;7386617;19;1582;-66
2024/01/22 09:53:09;;;;;;;;;;;;;;;18.42;51.71;103151.91;7385224;19;1461;-66
2024/01/22 09:55:46;;;;;;;;;;;;;;;18.25;52.32;103150.91;7386593;19;1416;-66
2024/01/22 10:01:59;;;;;;;;;;;;;;;18.63;51.44;103147.31;7381083;19;1396;-66
2024/01/22 10:08:08;;;;;;;;;;;;;;;;;;;;;
2024/01/22 10:19:48;;;;;;;;;;;;;;;18.77;51.13;103111.78;7380409;19;1871;-66
2024/01/22 10:57:05;;;;;;;;;;;;;;;;;;;;;
2024/01/22 10:59:59;;;;;;;;;;;;;;;19.40;50.08;103106.78;7388917;19;1188;-66
2024/01/22 11:02:44;;;;;;;;;;;;;;;19.27;50.37;103108.34;7389756;19;1488;-72
2024/01/22 11:05:51;;;;;;;;;;;;;;;19.20;50.96;103101.56;7387429;19;1802;-71
2024/01/22 11:08:51;;;;;;;;;;;;;;;19.07;51.26;103086.13;7388676;19;1268;-70
2024/01/22 11:11:45;;;;;;;;;;;;;;;19.07;51.24;103102.22;7385569;19;1419;-72
2024/01/22 11:17:39;;;;;;;;;;;;;;;19.20;50.77;103088.16;7374456;19;1834;-73
2024/01/22 11:20:44;;;;;;;;;;;;;;;;;;;;;
2024/01/22 13:06:52;;;;;;;;;;;;;;;19.33;51.81;102984.63;7381094;19;1293;-67
2024/01/22 13:09:21;;;;;;;;;;;;;;;19.30;51.73;102976.75;7382277;19;1520;-67
2024/01/22 13:11:49;;;;;;;;;;;;;;;19.36;51.54;102976.41;7387073;19;1419;-68
2024/01/22 13:14:17;;;;;;;;;;;;;;;19.39;51.72;102978.06;7388181;19;1847;-68
2024/01/22 13:16:46;;;;;;;;;;;;;;;19.35;51.56;102974.69;7386035;19;1936;-67
2024/01/22 13:19:15;;;;;;;;;;;;;;;19.37;51.37;102961.19;7370098;19;1845;-67
2024/01/22 13:21:44;;;;;;;;;;;;;;;19.32;51.54;102976.66;7387462;19;1478;-67
2024/01/22 13:24:15;;;;;;;;;;;;;;;19.28;51.68;102981.34;7388468;19;1472;-67
2024/01/22 13:26:43;;;;;;;;;;;;;;;19.25;51.64;102960.03;7388298;19;1752;-67
2024/01/22 13:29:12;;;;;;;;;;;;;;;19.28;51.64;102959.88;7386799;19;1364;-67
2024/01/22 13:31:40;;;;;;;;;;;;;;;19.32;51.39;102942.66;7386579;19;1723;-67
2024/01/22 13:34:08;;;;;;;;;;;;;;;19.31;51.18;102962.38;7388115;19;1717;-67
2024/01/22 13:36:37;;;;;;;;;;;;;;;19.31;51.23;102950.78;7386021;19;1381;-67
2024/01/22 13:39:06;;;;;;;;;;;;;;;19.32;51.67;102945.34;7387395;19;1861;-63
2024/01/22 13:41:37;;;;;;;;;;;;;;;19.22;51.66;102941.44;7385527;19;1494;-68
2024/01/22 13:44:06;;;;;;;;;;;;;;;19.34;51.56;102926.47;7387541;19;1228;-67
2024/01/22 13:46:34;;;;;;;;;;;;;;;19.35;51.22;102949.66;7388677;19;1781;-68
2024/01/22 13:49:03;;;;;;;;;;;;;;;19.38;51.21;102934.28;7387113;19;1785;-67
2024/01/22 13:51:31;;;;;;;;;;;;;;;19.28;51.40;102935.75;7385708;19;1503;-68
2024/01/22 13:53:59;;;;;;;;;;;;;;;19.20;51.52;102940.63;7385609;19;1224;-68
2024/01/22 13:56:25;;;;;;;;;;;;;;;19.24;51.41;102920.78;7385379;19;1535;-67
2024/01/22 13:58:56;;;;;;;;;;;;;;;19.33;51.18;102914.88;7385708;19;1857;-68
2024/01/22 14:01:24;;;;;;;;;;;;;;;19.35;51.14;102933.56;7383636;19;1221;-67
2024/01/22 14:03:52;;;;;;;;;;;;;;;19.36;50.96;102932.59;7385397;19;1677;-67
2024/01/22 14:06:21;;;;;;;;;;;;;;;19.28;51.47;102927.69;7385253;19;1706;-67
2024/01/22 14:08:49;;;;;;;;;;;;;;;19.27;51.22;102925.94;7385748;19;1206;-67
2024/01/22 14:11:18;;;;;;;;;;;;;;;19.29;51.17;102921.38;7385321;19;1513;-68
2024/01/22 14:13:47;;;;;;;;;;;;;;;18.81;52.33;102912.38;7386150;19;1590;-67
2024/01/22 14:16:20;;;;;;;;;;;;;;;18.23;53.96;102925.13;7385788;19;1859;-67
2024/01/22 14:18:49;;;;;;;;;;;;;;;17.80;55.14;102910.31;7369531;19;1881;-67
2024/01/22 14:21:17;;;;;;;;;;;;;;;17.57;55.36;102924.81;7383680;19;1300;-67
2024/01/22 14:23:46;;;;;;;;;;;;;;;17.42;55.36;102940.63;7383967;19;1458;-69
2024/01/22 14:26:14;;;;;;;;;;;;;;;17.27;56.00;102901.25;7385685;19;1439;-68
2024/01/22 14:28:43;;;;;;;;;;;;;;;17.23;56.95;102907.66;7388206;19;1510;-67
2024/01/22 14:31:11;;;;;;;;;;;;;;;17.20;57.04;102918.50;7394440;19;1288;-67
2024/01/22 14:33:42;;;;;;;;;;;;;;;17.21;56.69;102901.53;7391079;19;1432;-68
2024/01/22 14:36:11;;;;;;;;;;;;;;;17.32;56.68;102901.03;7394827;19;1098;-68
2024/01/22 14:38:40;;;;;;;;;;;;;;;17.72;55.39;102883.91;7392456;19;1877;-67
2024/01/22 14:41:08;;;;;;;;;;;;;;;18.46;53.64;102878.41;7393800;19;1058;-68
2024/01/22 14:43:36;;;;;;;;;;;;;;;18.89;52.30;102899.41;7393939;19;1879;-68
2024/01/22 14:46:05;;;;;;;;;;;;;;;19.25;51.66;102895.66;7392699;19;1872;-68
2024/01/22 14:48:34;;;;;;;;;;;;;;;19.35;50.98;102880.78;7392088;19;1102;-68
2024/01/22 14:51:05;;;;;;;;;;;;;;;19.54;50.48;102890.50;7391051;19;1671;-68
2024/01/22 14:53:34;;;;;;;;;;;;;;;19.21;51.44;102899.47;7392669;19;1658;-68
2024/01/22 14:56:03;;;;;;;;;;;;;;;18.97;51.91;102873.03;7391698;19;1465;-68
2024/01/22 14:58:31;;;;;;;;;;;;;;;19.01;51.81;102871.94;7390253;19;1843;-68
2024/01/22 15:00:59;;;;;;;;;;;;;;;19.07;51.50;102893.03;7388896;19;1348;-68
2024/01/22 15:03:27;;;;;;;;;;;;;;;19.06;51.40;102885.97;7391874;19;1799;-68
2024/01/22 15:05:56;;;;;;;;;;;;;;;19.27;51.06;102881.19;7392438;19;1777;-69
2024/01/22 15:08:27;;;;;;;;;;;;;;;19.31;50.85;102873.00;7392370;19;1614;-69
2024/01/22 15:10:55;;;;;;;;;;;;;;;19.26;50.84;102886.69;7390342;19;1357;-68
2024/01/22 15:13:24;;;;;;;;;;;;;;;19.17;50.98;102871.09;7390238;19;1535;-69
2024/01/22 15:15:52;;;;;;;;;;;;;;;19.22;50.98;102877.06;7387725;19;1557;-68
2024/01/22 15:18:20;;;;;;;;;;;;;;;19.01;51.57;102871.94;7376096;19;1871;-68
2024/01/22 15:20:49;;;;;;;;;;;;;;;19.21;51.02;102873.50;7365314;19;2018;-69
2024/01/22 15:23:17;;;;;;;;;;;;;;;19.30;50.77;102877.50;7384082;19;1114;-69
2024/01/22 15:25:48;;;;;;;;;;;;;;;19.19;50.97;102856.63;7379297;19;1520;-69
2024/01/22 15:28:17;;;;;;;;;;;;;;;19.13;51.01;102864.16;7379590;19;1504;-69
2024/01/22 15:30:45;;;;;;;;;;;;;;;18.82;51.00;102812.22;7382889;19;1289;-69
2024/01/22 15:33:15;;;;;;;;;;;;;;;19.20;50.85;102876.25;7387783;19;1806;-69
2024/01/22 15:35:43;;;;;;;;;;;;;;;19.19;50.98;102877.22;7387303;19;1210;-69
2024/01/22 15:38:15;;;;;;;;;;;;;;;19.14;50.75;102865.88;7388358;19;1858;-70
2024/01/22 15:40:45;;;;;;;;;;;;;;;19.17;50.82;102868.41;7387384;19;1149;-70